Latest Coastal Weather Observations for Mandurah

IDW60701

Issued at 1:15 am WST Thursday 24 April 2014 (issued every 10 minutes, with the page automatically refreshed every 10 minutes)

About coastal observations | Map of coastal stations | Coastal observations for WA | Marine services | Other Formats
Station Details ID: 009977 Name: MANDURAH Lat: -32.52 Lon: 115.71 Height: 3.0 m
Data from the previous 72 hours. | See also: Recent months at Mandurah
Date/Time
WST
Temp

°C
Wind Pressure Rain
since 9am
mm
Weather Cloud Vis
km
Sea
Height
m
Swell
Dir
 
Speed
knots
Gust
knots
hPa Trend Height
m
Period
s
Dir
24/01:00am 17.9 SE 5 7 1013.0 - 0.0 - - - - - - -
24/12:30am 18.3 ESE 4 6 1013.1 - 0.0 - - - - - - -
24/12:00am 18.4 ESE 5 8 1013.3 - 0.0 - - - - - - -
 
Date/Time
WST
Temp

°C
Wind Pressure Rain
since 9am
mm
Weather Cloud Vis
km
Sea
Height
m
Swell
Dir
 
Speed
knots
Gust
knots
hPa Trend Height
m
Period
s
Dir
23/11:30pm 18.6 ESE 5 8 1013.6 - 0.0 - - - - - - -
23/11:00pm 18.8 ESE 6 8 1013.8 - 0.0 - - - - - - -
23/10:30pm 18.9 SE 5 7 1014.1 - 0.0 - - - - - - -
23/10:00pm 19.1 SE 6 7 1014.3 - 0.0 - - - - - - -
23/09:30pm 18.7 SE 5 6 1014.4 - 0.0 - - - - - - -
23/09:00pm 19.4 SE 5 7 1014.4 - 0.0 - - - - - - -
23/08:30pm 19.7 SE 6 8 1014.5 - 0.0 - - - - - - -
23/08:00pm 19.8 SSE 6 8 1014.5 - 0.0 - - - - - - -
23/07:30pm 19.7 S 7 9 1014.6 - 0.0 - - - - - - -
23/07:00pm 19.9 S 6 9 1014.6 - 0.0 - - - - - - -
23/06:30pm 20.1 S 8 10 1014.2 - 0.0 - - - - - - -
23/06:00pm 20.4 S 7 10 1014.0 - 0.0 - - - - - - -
23/05:30pm 20.9 S 8 13 1013.9 - 0.0 - - - - - - -
23/05:00pm 21.4 S 9 13 1013.8 - 0.0 - - - - - - -
23/04:30pm 22.7 SSW 8 11 1013.8 - 0.0 - - - - - - -
23/04:00pm 22.8 SSW 8 12 1013.9 - 0.0 - - - - - - -
23/03:30pm 23.2 S 8 11 1013.9 - 0.0 - - - - - - -
23/03:00pm 23.1 S 8 10 1014.0 - 0.0 - - - - - - -
23/02:30pm 23.7 S 7 9 1014.4 - 0.0 - - - - - - -
23/02:00pm 23.3 S 7 11 1014.7 - 0.0 - - - - - - -
23/01:30pm 22.8 S 8 11 1015.0 - 0.0 - - - - - - -
23/01:00pm 22.5 S 7 11 1015.6 - 0.0 - - - - - - -
23/12:30pm 22.1 SSE 7 11 1016.3 - 0.0 - - - - - - -
23/12:00pm 21.5 SSE 7 11 1016.7 - 0.0 - - - - - - -
23/11:30am 20.6 S 8 12 1017.1 - 0.0 - - - - - - -
23/11:00am 20.0 SSE 8 13 1017.5 - 0.0 - - - - - - -
23/10:30am 19.3 SE 10 16 1017.7 - 0.0 - - - - - - -
23/10:00am 18.4 SE 8 13 1018.3 - 0.0 - - - - - - -
23/09:30am 17.2 SE 7 12 1018.8 - 0.0 - - - - - - -
23/09:00am 15.4 SSE 4 5 1019.0 - 0.0 - - - - - - -
23/08:30am 14.4 SE 6 8 1018.8 - 0.0 - - - - - - -
23/08:00am 13.4 SE 5 7 1018.5 - 0.0 - - - - - - -
23/07:30am 12.9 SSE 4 6 1018.1 - 0.0 - - - - - - -
23/07:00am 12.7 SSE 3 4 1017.9 - 0.0 - - - - - - -
23/06:30am 12.7 SSE 3 4 1017.8 - 0.0 - - - - - - -
23/06:00am 12.1 ESE 2 4 1017.7 - 0.0 - - - - - - -
23/05:30am 12.5 SE 3 5 1017.8 - 0.0 - - - - - - -
23/05:00am 12.8 SE 4 5 1017.7 - 0.0 - - - - - - -
23/04:30am 13.3 SE 5 7 1017.5 - 0.0 - - - - - - -
23/04:00am 13.9 SE 5 7 1017.5 - 0.0 - - - - - - -
23/03:30am 14.2 SE 4 6 1017.5 - 0.0 - - - - - - -
23/03:00am 14.3 SE 4 6 1017.7 - 0.0 - - - - - - -
23/02:30am 14.6 SE 4 6 1017.9 - 0.0 - - - - - - -
23/02:00am 14.8 SSE 5 7 1018.0 - 0.0 - - - - - - -
23/01:30am 14.7 SE 6 8 1018.2 - 0.0 - - - - - - -
23/01:00am 15.2 SE 5 7 1018.1 - 0.0 - - - - - - -
23/12:30am 15.5 SSE 7 11 1017.9 - 0.0 - - - - - - -
23/12:00am 15.8 SSE 5 9 1018.3 - 0.0 - - - - - - -
 
Date/Time
WST
Temp

°C
Wind Pressure Rain
since 9am
mm
Weather Cloud Vis
km
Sea
Height
m
Swell
Dir
 
Speed
knots
Gust
knots
hPa Trend Height
m
Period
s
Dir
22/11:30pm 16.1 SSE 7 10 1018.4 - 0.0 - - - - - - -
22/11:00pm 16.2 SSE 8 10 1018.7 - 0.0 - - - - - - -
22/10:30pm 16.5 SSE 8 12 1018.9 - 0.0 - - - - - - -
22/10:00pm 16.4 SSE 5 7 1019.1 - 0.0 - - - - - - -
22/09:30pm 17.5 SSE 5 8 1018.7 - 0.0 - - - - - - -
22/09:00pm 17.9 S 6 9 1018.6 - 0.0 - - - - - - -
22/08:30pm 18.1 S 7 10 1018.7 - 0.0 - - - - - - -
22/08:00pm 18.0 S 5 8 1018.7 - 0.0 - - - - - - -
22/07:30pm 18.2 SSW 6 9 1018.9 - 0.0 - - - - - - -
22/07:00pm 18.4 S 6 8 1018.5 - 0.0 - - - - - - -
22/06:30pm 18.6 S 7 11 1017.9 - 0.0 - - - - - - -
22/06:00pm 18.8 S 6 11 1017.5 - 0.0 - - - - - - -
22/05:30pm 19.4 S 8 14 1017.7 - 0.0 - - - - - - -
22/05:00pm 20.1 S 9 12 1017.9 - 0.0 - - - - - - -
22/04:30pm 20.5 SSW 10 13 1017.8 - 0.0 - - - - - - -
22/04:00pm 21.6 SSW 7 11 1017.7 - 0.0 - - - - - - -
22/03:30pm 21.7 SSW 7 12 1017.8 - 0.0 - - - - - - -
22/03:00pm 22.0 SSW 7 10 1017.9 - 0.0 - - - - - - -
22/02:30pm 22.2 SSW 6 11 1018.2 - 0.0 - - - - - - -
22/02:00pm 22.6 WSW 7 11 1018.4 - 0.0 - - - - - - -
22/01:30pm 22.5 WSW 8 13 1018.9 - 0.0 - - - - - - -
22/01:00pm 21.8 W 8 10 1019.1 - 0.0 - - - - - - -
22/12:30pm 21.1 WSW 8 10 1019.8 - 0.0 - - - - - - -
22/12:00pm 20.4 WSW 7 9 1020.1 - 0.0 - - - - - - -
22/11:30am 20.0 SW 4 7 1020.4 - 0.0 - - - - - - -
22/11:00am 18.6 SSE 4 6 1020.8 - 0.0 - - - - - - -
22/10:30am 18.4 SW 2 4 1021.2 - 0.0 - - - - - - -
22/10:00am 18.6 CALM 0 1 1021.5 - 0.0 - - - - - - -
22/09:30am 16.2 SSE 2 3 1021.7 - 0.0 - - - - - - -
22/09:00am 15.0 SSE 3 4 1021.6 - 0.0 - - - - - - -
22/08:30am 14.1 SSE 3 4 1021.4 - 0.0 - - - - - - -
22/08:00am 13.2 SE 3 4 1021.2 - 0.0 - - - - - - -
22/07:30am 13.1 SSE 3 4 1021.0 - 0.0 - - - - - - -
22/07:00am 12.8 SSE 3 4 1020.7 - 0.0 - - - - - - -
22/06:30am 12.7 S 3 5 1020.5 - 0.0 - - - - - - -
22/06:00am 13.1 S 3 4 1020.4 - 0.0 - - - - - - -
22/05:30am 13.4 S 3 5 1020.4 - 0.0 - - - - - - -
22/05:00am 13.4 S 3 5 1020.2 - 0.0 - - - - - - -
22/04:30am 13.1 SSE 3 5 1020.1 - 0.0 - - - - - - -
22/04:00am 13.5 SSE 7 9 1019.9 - 0.0 - - - - - - -
22/03:30am 13.9 SSE 7 11 1019.9 - 0.0 - - - - - - -
22/03:00am 14.2 SSE 7 11 1020.1 - 0.0 - - - - - - -
22/02:30am 14.4 SSE 7 11 1020.1 - 0.0 - - - - - - -
22/02:00am 14.6 SSE 8 11 1020.0 - 0.0 - - - - - - -
22/01:30am 14.7 SSE 8 11 1020.1 - 0.0 - - - - - - -
22/01:00am 14.9 SSE 9 12 1020.2 - 0.0 - - - - - - -
22/12:30am 15.3 SSE 6 10 1020.2 - 0.0 - - - - - - -
22/12:00am 15.4 SSE 7 9 1020.3 - 0.0 - - - - - - -
 
Date/Time
WST
Temp

°C
Wind Pressure Rain
since 9am
mm
Weather Cloud Vis
km
Sea
Height
m
Swell
Dir
 
Speed
knots
Gust
knots
hPa Trend Height
m
Period
s
Dir
21/11:30pm 15.5 SSE 8 12 1020.5 - 0.0 - - - - - - -
21/11:00pm 15.9 SSE 9 12 1020.7 - 0.0 - - - - - - -
21/10:30pm 16.6 SSE 8 12 1020.7 - 0.0 - - - - - - -
21/10:00pm 17.2 SSE 9 13 1020.8 - 0.0 - - - - - - -
21/09:30pm 18.1 S 6 9 1020.8 - 0.0 - - - - - - -
21/09:00pm 18.1 S 7 9 1020.9 - 0.0 - - - - - - -
21/08:30pm 18.2 S 7 9 1021.0 - 0.0 - - - - - - -
21/08:00pm 18.3 S 6 10 1020.8 - 0.0 - - - - - - -
21/07:30pm 18.4 S 6 9 1020.5 - 0.0 - - - - - - -
21/07:00pm 18.5 S 7 10 1020.2 - 0.0 - - - - - - -
21/06:30pm 18.7 S 6 10 1019.9 - 0.0 - - - - - - -
21/06:00pm 18.8 SSW 7 9 1019.6 - 0.0 - - - - - - -
21/05:30pm 19.4 SSW 7 12 1019.2 - 0.0 - - - - - - -
21/05:00pm 19.9 SSW 8 11 1019.1 - 0.0 - - - - - - -
21/04:30pm 20.4 SW 10 13 1019.0 - 0.0 - - - - - - -
21/04:00pm 20.9 SW 9 16 1019.0 - 0.0 - - - - - - -
21/03:30pm 21.6 SSW 7 12 1018.9 - 0.0 - - - - - - -
21/03:00pm 21.6 WSW 11 14 1018.8 - 0.0 - - - - - - -
21/02:30pm 21.6 SSW 7 14 1018.8 - 0.0 - - - - - - -
21/02:00pm 21.5 WSW 9 13 1018.8 - 0.0 - - - - - - -
21/01:30pm 21.7 WSW 6 10 1018.8 - 0.0 - - - - - - -
21/01:00pm 21.3 SSE 5 8 1019.0 - 0.0 - - - - - - -
21/12:30pm 21.1 S 5 8 1019.3 - 0.0 - - - - - - -
21/12:00pm 20.3 S 5 8 1019.6 - 0.0 - - - - - - -
21/11:30am 19.7 SSE 5 7 1019.9 - 0.0 - - - - - - -
21/11:00am 19.1 S 5 8 1020.2 - 0.0 - - - - - - -
21/10:30am 18.6 SSE 6 9 1020.2 - 0.0 - - - - - - -
21/10:00am 18.0 SSE 6 9 1020.1 - 0.0 - - - - - - -
21/09:30am 16.9 SSE 5 7 1020.1 - 0.0 - - - - - - -
21/09:00am 16.2 ESE 4 7 1020.0 - 0.0 - - - - - - -
21/08:30am 14.9 ESE 5 7 1019.7 - 0.0 - - - - - - -
21/08:00am 13.6 ESE 3 5 1019.5 - 0.0 - - - - - - -
21/07:30am 12.8 ESE 4 5 1019.2 - 0.0 - - - - - - -
21/07:00am 12.6 SE 4 6 1018.8 - 0.0 - - - - - - -
21/06:30am 12.8 ESE 5 7 1018.6 - 0.0 - - - - - - -
21/06:00am 13.3 SE 5 6 1018.5 - 0.0 - - - - - - -
21/05:30am 13.5 SE 6 7 1018.5 - 0.0 - - - - - - -
21/05:00am 13.5 SSE 6 8 1018.1 - 0.0 - - - - - - -
21/04:30am 13.5 SE 5 6 1017.7 - 0.0 - - - - - - -
21/04:00am 14.8 SSE 5 7 1017.5 - 0.0 - - - - - - -
21/03:30am 15.1 S 6 8 1017.3 - 0.0 - - - - - - -
21/03:00am 15.6 SSE 4 6 1017.0 - 0.0 - - - - - - -
21/02:30am 15.8 SSE 6 8 1017.0 - 0.0 - - - - - - -
21/02:00am 16.1 S 5 8 1016.9 - 0.0 - - - - - - -
21/01:30am 16.3 S 7 10 1016.7 - 0.0 - - - - - - -

Other Formats:

Comma delimited format used in spreadsheet applications
http://www.bom.gov.au/fwo/IDW60701/IDW60701.94605.axf

JavaScript Object Notation format (JSON) in row-major order
http://www.bom.gov.au/fwo/IDW60701/IDW60701.94605.json